Time;durP1;ratioP1;P1;durP2;ratioP2;P2;SDS_P1;SDS_P2;PMS_P1;PMS_P2;Temp;Humidity;BMP_temperature;BMP_pressure;BME280_temperature;BME280_humidity;BME280_pressure;Samples;Min_cycle;Max_cycle;Signal;HPM_P1;HPM_P2
2023/02/14 00:00:41;;;;;;;14.43;10.57;;;4.40;99.90;;;;;;2074950;28;20105;-73
2023/02/14 00:01:42;;;;;;;13.18;9.63;;;4.30;99.90;;;;;;2075314;28;20034;-73
2023/02/14 00:02:43;;;;;;;12.35;9.73;;;4.30;99.90;;;;;;2074006;28;20033;-73
2023/02/14 00:03:44;;;;;;;12.68;9.68;;;4.30;99.90;;;;;;2075100;28;20120;-73
2023/02/14 00:04:45;;;;;;;11.30;10.10;;;4.30;99.90;;;;;;2073757;28;20031;-73
2023/02/14 00:05:46;;;;;;;11.60;9.98;;;4.30;99.90;;;;;;2073503;28;20037;-73
2023/02/14 00:06:47;;;;;;;15.13;10.77;;;4.30;99.90;;;;;;2074257;28;20080;-73
2023/02/14 00:07:47;;;;;;;11.88;9.73;;;4.30;99.90;;;;;;2075774;28;20034;-73
2023/02/14 00:08:49;;;;;;;12.98;10.23;;;4.30;99.90;;;;;;2075561;28;20046;-73
2023/02/14 00:09:50;;;;;;;12.02;10.00;;;4.30;99.90;;;;;;2074324;28;20038;-73
2023/02/14 00:10:50;;;;;;;12.27;9.60;;;4.30;99.90;;;;;;2075245;28;20121;-73
2023/02/14 00:11:51;;;;;;;13.00;10.90;;;4.20;99.90;;;;;;2073849;28;20018;-73
2023/02/14 00:12:52;;;;;;;12.55;9.68;;;4.20;99.90;;;;;;2075172;28;20116;-73
2023/02/14 00:15:21;;;;;;;11.63;9.98;;;4.20;99.90;;;;;;2074473;28;20494;-73
2023/02/14 00:16:21;;;;;;;13.93;9.37;;;4.20;99.90;;;;;;2075147;28;20022;-73
2023/02/14 00:17:22;;;;;;;10.32;9.20;;;4.10;99.90;;;;;;2075165;28;20303;-73
2023/02/14 00:19:01;;;;;;;11.07;9.48;;;4.20;99.90;;;;;;2074727;28;20037;-73
2023/02/14 00:19:43;;;;;;;11.35;8.90;;;4.10;99.90;;;;;;2072628;28;20033;-73
2023/02/14 00:20:43;;;;;;;9.77;8.40;;;4.10;99.90;;;;;;2073383;28;20784;-73
2023/02/14 00:21:44;;;;;;;10.98;9.88;;;4.10;99.90;;;;;;2074472;28;20041;-73
2023/02/14 00:22:45;;;;;;;10.73;9.15;;;4.10;99.90;;;;;;2073179;28;20529;-73
2023/02/14 00:23:45;;;;;;;11.50;9.65;;;4.10;99.90;;;;;;2074060;28;20064;-73
2023/02/14 00:24:46;;;;;;;9.55;8.55;;;4.10;99.90;;;;;;2072951;28;20093;-73
2023/02/14 00:25:46;;;;;;;11.25;9.23;;;4.10;99.90;;;;;;2074610;28;20030;-73
2023/02/14 00:26:48;;;;;;;11.43;9.88;;;4.10;99.90;;;;;;2074026;28;20501;-73
2023/02/14 00:27:49;;;;;;;10.90;9.30;;;4.10;99.90;;;;;;2075625;28;20037;-73
2023/02/14 00:28:50;;;;;;;11.23;9.43;;;4.10;99.90;;;;;;2073885;28;20058;-73
2023/02/14 00:29:50;;;;;;;12.82;10.00;;;4.10;99.90;;;;;;2072023;28;20037;-73
2023/02/14 00:30:51;;;;;;;13.38;9.70;;;4.10;99.90;;;;;;2076493;28;20441;-73
2023/02/14 00:31:51;;;;;;;10.77;9.63;;;4.00;99.90;;;;;;2073365;28;20448;-73
2023/02/14 00:32:52;;;;;;;12.50;9.35;;;4.00;99.90;;;;;;2072901;28;20104;-73
2023/02/14 00:33:53;;;;;;;11.73;9.00;;;4.00;99.90;;;;;;2073918;28;20029;-73
2023/02/14 00:34:54;;;;;;;10.52;9.32;;;4.00;99.90;;;;;;2073994;28;20033;-73
2023/02/14 00:35:54;;;;;;;10.70;9.38;;;4.00;99.90;;;;;;2075508;28;20068;-73
2023/02/14 00:36:55;;;;;;;14.07;9.38;;;4.00;99.90;;;;;;2073964;28;20390;-73
2023/02/14 00:37:56;;;;;;;10.68;8.75;;;4.00;99.90;;;;;;2072792;28;20025;-73
2023/02/14 00:38:56;;;;;;;12.43;9.65;;;4.00;99.90;;;;;;2076077;28;20091;-73
2023/02/14 00:39:57;;;;;;;10.45;9.32;;;4.00;99.90;;;;;;2074416;28;20101;-73
2023/02/14 00:40:57;;;;;;;10.40;9.23;;;4.00;99.90;;;;;;2075083;28;20026;-73
2023/02/14 00:41:58;;;;;;;10.70;9.60;;;4.00;99.90;;;;;;2076236;28;20037;-73
2023/02/14 00:42:58;;;;;;;10.93;9.23;;;4.00;99.90;;;;;;2074802;28;20071;-72
2023/02/14 00:43:59;;;;;;;12.55;9.35;;;4.00;99.90;;;;;;2072778;28;20042;-73
2023/02/14 00:45:00;;;;;;;11.23;9.95;;;3.90;99.90;;;;;;2072755;28;20077;-73
2023/02/14 00:46:01;;;;;;;12.20;9.20;;;3.90;99.90;;;;;;2073727;28;20033;-73
2023/02/14 00:47:01;;;;;;;10.43;9.32;;;3.90;99.90;;;;;;2073608;28;20045;-73
2023/02/14 00:48:02;;;;;;;11.45;9.82;;;3.90;99.90;;;;;;2073233;28;20816;-73
2023/02/14 00:49:03;;;;;;;11.00;8.77;;;3.90;99.90;;;;;;2075456;28;20388;-73
2023/02/14 00:50:04;;;;;;;12.57;10.20;;;3.90;99.90;;;;;;2074748;28;20029;-73
2023/02/14 00:51:04;;;;;;;10.57;9.45;;;3.90;99.90;;;;;;2072225;28;20033;-73
2023/02/14 00:52:05;;;;;;;10.93;8.70;;;3.90;99.90;;;;;;2076507;28;20070;-73
2023/02/14 00:53:05;;;;;;;10.52;9.35;;;3.90;99.90;;;;;;2075737;28;20041;-73
2023/02/14 00:54:06;;;;;;;9.98;8.63;;;3.90;99.90;;;;;;2074192;28;20052;-73
2023/02/14 00:55:07;;;;;;;11.45;8.90;;;3.90;99.90;;;;;;2074173;28;20032;-73
2023/02/14 00:56:07;;;;;;;9.95;8.95;;;3.90;99.90;;;;;;2073561;28;20025;-73
2023/02/14 00:57:08;;;;;;;10.77;9.32;;;3.90;99.90;;;;;;2073835;28;20040;-73
2023/02/14 00:58:08;;;;;;;10.38;8.52;;;3.90;99.90;;;;;;2074534;28;20056;-73
2023/02/14 00:59:09;;;;;;;9.88;8.48;;;3.90;99.90;;;;;;2076359;28;20079;-73
2023/02/14 01:00:10;;;;;;;10.40;8.45;;;3.80;99.90;;;;;;2074968;28;20034;-73
2023/02/14 01:01:11;;;;;;;10.48;9.38;;;3.80;99.90;;;;;;2074586;28;20044;-73
2023/02/14 01:02:12;;;;;;;12.00;9.68;;;3.80;99.90;;;;;;2075310;28;20041;-73
2023/02/14 01:03:12;;;;;;;13.05;9.07;;;3.80;99.90;;;;;;2079865;28;20036;-73
2023/02/14 01:04:13;;;;;;;10.43;9.30;;;3.80;99.90;;;;;;2075352;28;20073;-73
2023/02/14 01:05:13;;;;;;;10.80;9.38;;;3.80;99.90;;;;;;2075493;28;20088;-73
2023/02/14 01:06:14;;;;;;;9.63;8.57;;;3.80;99.90;;;;;;2076792;28;20033;-73
2023/02/14 01:07:15;;;;;;;10.05;8.45;;;3.80;99.90;;;;;;2075254;28;20064;-73
2023/02/14 01:08:16;;;;;;;9.77;8.55;;;3.80;99.90;;;;;;2075514;28;20026;-73
2023/02/14 01:09:16;;;;;;;12.05;8.27;;;3.80;99.90;;;;;;2075895;28;20096;-73
2023/02/14 01:10:17;;;;;;;9.55;8.45;;;3.80;99.90;;;;;;2075997;28;20036;-73
2023/02/14 01:11:20;;;;;;;11.85;8.98;;;3.80;99.90;;;;;;2075959;28;20022;-73
2023/02/14 01:12:20;;;;;;;10.00;9.00;;;3.80;99.90;;;;;;2073907;28;20932;-73
2023/02/14 01:13:21;;;;;;;12.15;9.73;;;3.80;99.90;;;;;;2076871;28;20218;-73
2023/02/14 01:14:22;;;;;;;10.23;8.65;;;3.80;99.90;;;;;;2077878;28;20109;-73
2023/02/14 01:15:22;;;;;;;10.40;8.73;;;3.80;99.90;;;;;;2074534;28;20040;-73
2023/02/14 01:16:24;;;;;;;9.30;8.38;;;3.80;99.90;;;;;;2073625;28;20034;-73
2023/02/14 01:17:26;;;;;;;12.88;9.80;;;3.80;99.90;;;;;;2077433;28;20519;-73
2023/02/14 01:18:26;;;;;;;11.48;9.45;;;3.80;99.90;;;;;;2076085;28;20026;-73
2023/02/14 01:19:27;;;;;;;10.85;9.27;;;3.80;99.90;;;;;;2074629;28;20034;-73
2023/02/14 01:20:27;;;;;;;12.63;9.63;;;3.80;99.90;;;;;;2074994;28;20058;-73
2023/02/14 01:21:31;;;;;;;10.80;9.10;;;3.80;99.90;;;;;;2076845;28;20230;-73
2023/02/14 01:22:37;;;;;;;13.23;9.02;;;3.80;99.90;;;;;;2075813;28;20052;-73
2023/02/14 01:23:38;;;;;;;18.17;10.18;;;3.80;99.90;;;;;;2073749;28;20520;-73
2023/02/14 01:24:38;;;;;;;10.75;8.65;;;3.80;99.90;;;;;;2076106;28;20679;-73
2023/02/14 01:25:39;;;;;;;11.68;9.73;;;3.90;99.90;;;;;;2075361;28;20025;-73
2023/02/14 01:26:39;;;;;;;10.82;9.38;;;3.90;99.90;;;;;;2072893;28;20048;-73
2023/02/14 01:27:40;;;;;;;11.10;9.75;;;3.90;99.90;;;;;;2074839;28;21206;-73
2023/02/14 01:28:41;;;;;;;10.32;9.32;;;3.90;99.90;;;;;;2074585;28;20021;-73
2023/02/14 01:29:42;;;;;;;11.52;9.32;;;3.90;99.90;;;;;;2076407;28;20140;-73
2023/02/14 01:30:42;;;;;;;10.73;9.43;;;3.90;99.90;;;;;;2077874;28;20036;-73
2023/02/14 01:31:43;;;;;;;12.45;10.40;;;3.90;99.90;;;;;;2074349;28;20097;-73
2023/02/14 01:32:44;;;;;;;11.88;9.60;;;3.90;99.90;;;;;;2073651;28;20108;-73
2023/02/14 01:33:46;;;;;;;11.77;9.45;;;3.90;99.90;;;;;;2075804;28;20093;-73
2023/02/14 01:34:47;;;;;;;11.35;10.15;;;3.90;99.90;;;;;;2077848;28;20524;-73
2023/02/14 01:35:47;;;;;;;11.77;9.38;;;4.00;99.90;;;;;;2078981;28;20626;-73
2023/02/14 01:36:48;;;;;;;11.77;9.48;;;4.00;99.90;;;;;;2073036;28;20028;-73
2023/02/14 01:37:48;;;;;;;11.40;9.48;;;4.00;99.90;;;;;;2076000;28;20040;-73
2023/02/14 01:38:53;;;;;;;11.13;9.60;;;4.00;99.90;;;;;;2074005;28;20097;-73
2023/02/14 01:39:54;;;;;;;10.98;9.70;;;4.00;99.90;;;;;;2074370;28;20030;-73
2023/02/14 01:40:54;;;;;;;10.95;9.05;;;4.00;99.90;;;;;;2075678;28;20045;-73
2023/02/14 01:41:55;;;;;;;12.77;10.20;;;4.00;99.90;;;;;;2074665;28;20516;-73
2023/02/14 01:42:56;;;;;;;10.82;9.27;;;4.00;99.90;;;;;;2075242;28;20465;-73
2023/02/14 01:44:15;;;;;;;10.35;8.98;;;4.00;99.90;;;;;;2073219;28;20026;-73
2023/02/14 01:45:21;;;;;;;10.93;9.37;;;4.00;99.90;;;;;;2075656;28;20022;-73
2023/02/14 01:46:22;;;;;;;11.18;9.15;;;4.00;99.90;;;;;;2077390;28;20831;-73
2023/02/14 01:47:26;;;;;;;11.90;9.40;;;4.00;99.90;;;;;;2076345;28;20459;-73
2023/02/14 01:48:26;;;;;;;12.05;9.85;;;4.00;99.90;;;;;;2077062;28;20036;-73
2023/02/14 01:49:34;;;;;;;11.85;10.07;;;4.00;99.90;;;;;;2079095;28;20396;-73
2023/02/14 01:50:39;;;;;;;10.98;9.75;;;4.00;99.90;;;;;;2079928;28;20159;-73
2023/02/14 01:51:49;;;;;;;10.55;9.50;;;4.00;99.90;;;;;;2075289;28;20161;-73
2023/02/14 01:52:58;;;;;;;12.50;10.00;;;4.00;99.90;;;;;;2075210;28;20442;-73
2023/02/14 01:53:59;;;;;;;11.57;8.75;;;4.10;99.90;;;;;;2076804;28;20029;-73
2023/02/14 01:55:08;;;;;;;10.90;9.43;;;4.10;99.90;;;;;;2077101;28;20076;-73
2023/02/14 01:56:13;;;;;;;13.20;9.73;;;4.10;99.90;;;;;;2074142;28;20580;-73
2023/02/14 01:57:18;;;;;;;11.80;10.02;;;4.10;99.90;;;;;;2077893;28;20029;-73
2023/02/14 01:58:24;;;;;;;14.18;10.10;;;4.00;99.90;;;;;;2075199;28;20044;-73
2023/02/14 01:59:29;;;;;;;11.93;9.90;;;4.10;99.90;;;;;;2077742;28;20370;-73
2023/02/14 02:01:52;;;;;;;14.50;9.98;;;4.00;99.90;;;;;;2075120;28;20037;-73
2023/02/14 02:02:53;;;;;;;10.85;9.32;;;4.00;99.90;;;;;;2073248;28;20165;-73
2023/02/14 02:03:58;;;;;;;10.05;9.00;;;4.00;99.90;;;;;;2076042;28;20129;-73
2023/02/14 02:04:58;;;;;;;11.43;9.20;;;4.10;99.90;;;;;;2076727;28;20026;-73
2023/02/14 02:06:24;;;;;;;11.27;9.50;;;4.00;99.90;;;;;;2073650;28;20053;-73
2023/02/14 02:07:26;;;;;;;11.07;9.20;;;4.00;99.90;;;;;;2075994;28;20112;-73
2023/02/14 02:08:26;;;;;;;14.18;9.13;;;4.00;99.90;;;;;;2073563;28;20028;-72
2023/02/14 02:09:37;;;;;;;11.82;10.02;;;4.00;99.90;;;;;;2073214;28;20029;-73
2023/02/14 02:10:37;;;;;;;10.15;9.15;;;4.00;99.90;;;;;;2076086;28;20029;-73
2023/02/14 02:11:39;;;;;;;10.35;9.00;;;4.00;99.90;;;;;;2075266;28;20028;-73
2023/02/14 02:12:40;;;;;;;11.25;10.10;;;4.00;99.90;;;;;;2074791;28;20030;-73
2023/02/14 02:13:40;;;;;;;12.20;10.10;;;4.00;99.90;;;;;;2074511;28;20572;-73
2023/02/14 02:14:42;;;;;;;11.10;9.88;;;4.00;99.90;;;;;;2072506;28;20030;-73
2023/02/14 02:16:00;;;;;;;9.90;8.90;;;4.00;99.90;;;;;;2073926;28;20028;-73
2023/02/14 02:17:29;;;;;;;10.65;9.18;;;4.00;99.90;;;;;;2075286;28;20029;-73
2023/02/14 02:18:44;;;;;;;11.15;9.00;;;4.00;99.90;;;;;;2075584;28;20445;-73
2023/02/14 02:19:54;;;;;;;11.65;9.40;;;4.00;99.90;;;;;;2073856;28;20799;-73
2023/02/14 02:21:16;;;;;;;11.65;10.38;;;4.00;99.90;;;;;;2075290;28;20033;-73
2023/02/14 02:22:47;;;;;;;10.85;9.75;;;4.00;99.90;;;;;;2077147;28;20029;-73
2023/02/14 02:24:06;;;;;;;9.50;8.48;;;4.00;99.90;;;;;;2074978;28;20072;-73
2023/02/14 02:25:37;;;;;;;11.57;9.45;;;3.90;99.90;;;;;;2076429;28;20156;-73
2023/02/14 02:26:57;;;;;;;9.45;8.48;;;3.90;99.90;;;;;;2074565;28;20088;-73
2023/02/14 02:28:06;;;;;;;9.57;8.65;;;3.90;99.90;;;;;;2073270;28;20026;-73
2023/02/14 02:29:28;;;;;;;11.38;8.90;;;3.90;99.90;;;;;;2075154;28;20026;-73
2023/02/14 02:31:10;;;;;;;10.07;8.90;;;3.90;99.90;;;;;;2072924;28;20037;-73
2023/02/14 02:32:47;;;;;;;10.45;9.23;;;3.80;99.90;;;;;;2074808;28;20026;-73
2023/02/14 02:33:58;;;;;;;10.20;9.00;;;3.80;99.90;;;;;;2076570;28;20029;-73
2023/02/14 02:35:28;;;;;;;9.93;7.88;;;3.80;99.90;;;;;;2075861;28;20030;-73
2023/02/14 02:36:55;;;;;;;8.80;7.95;;;3.80;99.90;;;;;;2073912;28;20747;-73
2023/02/14 02:38:33;;;;;;;9.10;8.15;;;3.80;99.90;;;;;;2077125;28;20583;-73
2023/02/14 02:39:57;;;;;;;8.90;7.95;;;3.80;99.90;;;;;;2075244;28;20025;-73
2023/02/14 02:41:26;;;;;;;9.82;7.30;;;3.80;99.90;;;;;;2077036;28;20026;-73
2023/02/14 02:43:00;;;;;;;12.65;8.70;;;3.70;99.90;;;;;;2073950;28;20029;-73
2023/02/14 02:44:33;;;;;;;9.63;7.43;;;3.70;99.90;;;;;;2076512;28;20021;-73
2023/02/14 02:47:25;;;;;;;8.30;7.50;;;3.70;99.90;;;;;;2074854;28;20162;-73
2023/02/14 02:48:36;;;;;;;9.15;8.18;;;3.70;99.90;;;;;;2074598;28;20118;-73
2023/02/14 02:53:21;;;;;;;11.77;9.38;;;3.60;99.90;;;;;;2073918;28;20038;-73
2023/02/14 02:54:47;;;;;;;9.20;8.13;;;3.60;99.90;;;;;;2074738;28;20029;-73
2023/02/14 02:57:27;;;;;;;8.73;7.82;;;3.60;99.90;;;;;;2074966;28;20133;-73
2023/02/14 02:58:39;;;;;;;8.18;7.38;;;3.60;99.90;;;;;;2073939;28;20028;-73
2023/02/14 02:59:43;;;;;;;8.20;7.43;;;3.60;99.90;;;;;;2072944;28;21809;-73
2023/02/14 03:00:47;;;;;;;9.32;8.32;;;3.60;99.90;;;;;;2075207;28;20108;-73
2023/02/14 03:02:02;;;;;;;8.05;7.20;;;3.60;99.90;;;;;;2074412;28;20802;-73
2023/02/14 03:05:44;;;;;;;9.57;8.57;;;3.50;99.90;;;;;;2074268;28;20038;-73
2023/02/14 03:06:45;;;;;;;10.10;8.95;;;3.50;99.90;;;;;;2073535;28;20037;-73
2023/02/14 03:07:48;;;;;;;8.88;7.80;;;3.50;99.90;;;;;;2077061;28;20775;-73
2023/02/14 03:08:48;;;;;;;9.10;7.60;;;3.50;99.90;;;;;;2077045;28;20895;-73
2023/02/14 03:09:51;;;;;;;8.20;7.40;;;3.50;99.90;;;;;;2074132;28;20432;-73
2023/02/14 03:10:53;;;;;;;11.45;8.90;;;3.50;99.90;;;;;;2077045;28;20037;-73
2023/02/14 03:12:36;;;;;;;9.35;7.22;;;3.50;99.90;;;;;;2075184;28;20026;-73
2023/02/14 03:14:07;;;;;;;9.73;8.40;;;3.50;99.90;;;;;;2075508;28;20037;-73
2023/02/14 03:15:16;;;;;;;11.90;7.97;;;3.50;99.90;;;;;;2074107;28;20025;-73
2023/02/14 03:16:25;;;;;;;8.20;7.40;;;3.50;99.90;;;;;;2073110;28;20025;-73
2023/02/14 03:17:36;;;;;;;9.43;8.25;;;3.50;99.90;;;;;;2077580;28;20025;-73
2023/02/14 03:18:54;;;;;;;8.77;7.75;;;3.50;99.90;;;;;;2073305;28;20029;-73
2023/02/14 03:20:14;;;;;;;9.35;8.15;;;3.50;99.90;;;;;;2071737;28;20025;-73
2023/02/14 03:21:35;;;;;;;9.35;7.47;;;3.50;99.90;;;;;;2076252;28;20099;-73
2023/02/14 03:22:47;;;;;;;8.63;6.95;;;3.50;99.90;;;;;;2075864;28;20041;-73
2023/02/14 03:24:08;;;;;;;9.73;8.15;;;3.40;99.90;;;;;;2075310;28;20090;-73
2023/02/14 03:25:35;;;;;;;9.00;8.05;;;3.40;99.90;;;;;;2074322;28;20022;-73
2023/02/14 03:26:56;;;;;;;8.10;7.30;;;3.40;99.90;;;;;;2074237;28;20017;-73
2023/02/14 03:28:08;;;;;;;9.32;8.15;;;3.40;99.90;;;;;;2074665;28;20467;-73
2023/02/14 03:29:34;;;;;;;8.70;7.95;;;3.30;99.90;;;;;;2074165;28;20034;-73
2023/02/14 03:30:44;;;;;;;9.75;7.63;;;3.30;99.90;;;;;;2073562;28;20022;-73
2023/02/14 03:32:22;;;;;;;8.40;7.60;;;3.30;99.90;;;;;;2074850;28;20013;-73
2023/02/14 03:33:33;;;;;;;9.05;7.95;;;3.30;99.90;;;;;;2074159;28;20021;-73
2023/02/14 03:35:24;;;;;;;9.43;7.65;;;3.30;99.90;;;;;;2074482;28;20057;-73
2023/02/14 03:36:34;;;;;;;7.70;6.88;;;3.30;99.90;;;;;;2067969;28;20617;-73
2023/02/14 03:37:51;;;;;;;8.65;7.50;;;3.30;99.90;;;;;;2070145;28;20041;-73
2023/02/14 03:39:07;;;;;;;9.00;7.25;;;3.20;99.90;;;;;;2073342;28;20096;-73
2023/02/14 03:40:13;;;;;;;9.10;8.20;;;3.30;99.90;;;;;;2072438;28;20021;-73
2023/02/14 03:41:21;;;;;;;8.70;7.72;;;3.20;99.90;;;;;;2075733;28;20036;-73
2023/02/14 03:42:27;;;;;;;11.30;8.45;;;3.20;99.90;;;;;;2074908;28;20382;-72
2023/02/14 03:43:32;;;;;;;8.20;7.40;;;3.20;99.90;;;;;;2074629;28;20047;-73
2023/02/14 03:44:35;;;;;;;10.80;8.98;;;3.20;99.90;;;;;;2074081;28;20026;-73
2023/02/14 03:45:48;;;;;;;7.47;6.68;;;3.20;99.90;;;;;;2073455;28;20187;-73
2023/02/14 03:46:56;;;;;;;9.25;8.25;;;3.20;99.90;;;;;;2073476;28;20082;-72
2023/02/14 03:48:02;;;;;;;10.75;8.23;;;3.20;99.90;;;;;;2077477;28;20054;-73
2023/02/14 03:49:08;;;;;;;8.95;7.97;;;3.20;99.90;;;;;;2077564;28;20037;-73
2023/02/14 03:50:14;;;;;;;12.60;8.10;;;3.20;99.90;;;;;;2073033;28;20088;-73
2023/02/14 03:51:17;;;;;;;10.55;9.38;;;3.20;99.90;;;;;;2073532;28;20065;-73
2023/02/14 03:52:20;;;;;;;8.30;7.50;;;3.10;99.90;;;;;;2074344;28;20038;-73
2023/02/14 03:53:25;;;;;;;11.02;8.27;;;3.20;99.90;;;;;;2074009;28;20030;-73
2023/02/14 03:54:27;;;;;;;8.65;7.80;;;3.10;99.90;;;;;;2073988;28;20076;-73
2023/02/14 03:55:42;;;;;;;9.35;8.10;;;3.10;99.90;;;;;;2075802;28;20084;-73
2023/02/14 03:56:49;;;;;;;9.85;7.90;;;3.10;99.90;;;;;;2073711;28;20037;-73
2023/02/14 03:58:02;;;;;;;7.43;6.70;;;3.20;99.90;;;;;;2077995;28;20032;-73
2023/02/14 03:59:10;;;;;;;9.13;8.00;;;3.10;99.90;;;;;;2076786;28;20034;-72
2023/02/14 04:00:11;;;;;;;8.80;7.90;;;3.10;99.90;;;;;;2074174;28;20029;-72
2023/02/14 04:01:23;;;;;;;9.35;7.85;;;3.10;99.90;;;;;;2072792;28;20080;-73
2023/02/14 04:02:33;;;;;;;9.07;7.95;;;3.10;99.90;;;;;;2073454;28;20041;-72
2023/02/14 04:03:37;;;;;;;9.50;7.60;;;3.10;99.90;;;;;;2074059;28;20029;-72
2023/02/14 04:04:43;;;;;;;9.25;8.23;;;3.00;99.90;;;;;;2074769;28;20037;-72
2023/02/14 04:05:51;;;;;;;12.23;9.30;;;3.00;99.90;;;;;;2073375;28;20030;-72
2023/02/14 04:06:52;;;;;;;12.07;7.72;;;3.00;99.90;;;;;;2072972;28;20034;-72
2023/02/14 04:07:55;;;;;;;8.05;7.25;;;3.00;99.90;;;;;;2073433;28;20080;-72
2023/02/14 04:08:55;;;;;;;9.63;8.05;;;3.00;99.90;;;;;;2073895;28;20535;-72
2023/02/14 04:09:56;;;;;;;9.05;7.50;;;3.00;99.90;;;;;;2074093;28;20026;-72
2023/02/14 04:10:59;;;;;;;10.23;7.28;;;3.00;99.90;;;;;;2072883;28;20061;-72
2023/02/14 04:12:00;;;;;;;7.80;7.10;;;3.00;99.90;;;;;;2075529;28;20037;-72
2023/02/14 04:13:01;;;;;;;9.43;8.13;;;3.00;99.90;;;;;;2074628;28;20388;-72
2023/02/14 04:14:02;;;;;;;7.88;7.07;;;3.00;99.90;;;;;;2073432;28;20028;-73
2023/02/14 04:15:03;;;;;;;8.98;8.05;;;3.00;99.90;;;;;;2076121;28;20037;-73
2023/02/14 04:16:04;;;;;;;7.97;7.18;;;3.00;99.90;;;;;;2073825;28;20033;-73
2023/02/14 04:19:44;;;;;;;7.85;7.05;;;3.00;99.90;;;;;;2075092;28;20129;-72
2023/02/14 04:20:44;;;;;;;8.80;7.82;;;3.00;99.90;;;;;;2072393;28;20029;-72
2023/02/14 04:21:45;;;;;;;8.85;7.82;;;3.00;99.90;;;;;;2075680;28;20832;-72
2023/02/14 04:22:45;;;;;;;7.78;7.07;;;3.00;99.90;;;;;;2075373;28;20425;-72
2023/02/14 04:23:46;;;;;;;8.57;7.70;;;3.00;99.90;;;;;;2072673;28;20037;-72
2023/02/14 04:24:47;;;;;;;9.77;8.77;;;3.00;99.90;;;;;;2073782;28;20492;-72
2023/02/14 04:25:48;;;;;;;9.52;8.52;;;3.00;99.90;;;;;;2074462;28;20049;-72
2023/02/14 04:27:11;;;;;;;8.00;6.80;;;3.00;99.90;;;;;;2074063;28;20073;-72
2023/02/14 04:28:12;;;;;;;8.07;7.28;;;3.00;99.90;;;;;;2075488;28;20034;-72
2023/02/14 04:29:13;;;;;;;9.57;8.27;;;2.90;99.90;;;;;;2073853;28;20060;-72
2023/02/14 04:30:16;;;;;;;10.88;8.05;;;2.90;99.90;;;;;;2073441;28;20073;-72
2023/02/14 04:31:17;;;;;;;8.48;7.57;;;2.90;99.90;;;;;;2074975;28;20021;-72
2023/02/14 04:32:20;;;;;;;8.75;7.82;;;2.90;99.90;;;;;;2072893;28;20072;-72
2023/02/14 04:33:20;;;;;;;8.75;7.72;;;2.90;99.90;;;;;;2076618;28;20021;-72
2023/02/14 04:34:21;;;;;;;8.65;7.82;;;2.90;99.90;;;;;;2076547;28;20137;-72
2023/02/14 04:35:21;;;;;;;8.73;7.82;;;2.90;99.90;;;;;;2076130;28;20056;-72
2023/02/14 04:36:22;;;;;;;8.65;7.55;;;2.90;99.90;;;;;;2075161;28;20040;-72
2023/02/14 04:37:22;;;;;;;7.97;7.05;;;2.90;99.90;;;;;;2074975;28;20060;-72
2023/02/14 04:38:23;;;;;;;9.48;8.35;;;2.90;99.90;;;;;;2073968;28;20469;-72
2023/02/14 04:39:24;;;;;;;9.27;7.85;;;2.90;99.90;;;;;;2075685;28;20087;-72
2023/02/14 04:40:24;;;;;;;9.32;7.90;;;2.80;99.90;;;;;;2075587;28;20029;-72
2023/02/14 04:41:25;;;;;;;10.65;8.70;;;2.80;99.90;;;;;;2077828;28;20347;-72
2023/02/14 04:42:26;;;;;;;8.23;7.22;;;2.80;99.90;;;;;;2078620;28;20021;-72
2023/02/14 04:43:26;;;;;;;10.23;8.43;;;2.80;99.90;;;;;;2079283;28;20025;-72
2023/02/14 04:44:27;;;;;;;11.32;8.23;;;2.80;99.90;;;;;;2076925;28;20072;-72
2023/02/14 04:45:27;;;;;;;8.43;7.25;;;2.80;99.90;;;;;;2074499;28;20108;-72
2023/02/14 04:46:28;;;;;;;11.73;9.02;;;2.80;99.90;;;;;;2074326;28;20430;-72
2023/02/14 04:47:28;;;;;;;8.88;7.90;;;2.80;99.90;;;;;;2076457;28;20030;-72
2023/02/14 04:48:29;;;;;;;8.85;7.40;;;2.80;99.90;;;;;;2075452;28;20068;-72
2023/02/14 04:49:30;;;;;;;8.10;7.30;;;2.80;99.90;;;;;;2076439;28;20096;-72
2023/02/14 04:50:30;;;;;;;10.20;8.55;;;2.80;99.90;;;;;;2075758;28;20017;-72
2023/02/14 04:51:31;;;;;;;8.38;7.53;;;2.70;99.90;;;;;;2076827;28;20461;-72
2023/02/14 04:52:31;;;;;;;8.38;7.50;;;2.70;99.90;;;;;;2078396;28;20431;-72
2023/02/14 04:53:32;;;;;;;9.35;7.45;;;2.70;99.90;;;;;;2078006;28;20109;-72
2023/02/14 04:54:32;;;;;;;8.57;7.70;;;2.70;99.90;;;;;;2075642;28;20052;-72
2023/02/14 04:55:33;;;;;;;9.30;7.88;;;2.70;99.90;;;;;;2076670;28;20026;-72
2023/02/14 04:56:33;;;;;;;9.15;7.88;;;2.70;99.90;;;;;;2068874;28;20014;-72
2023/02/14 04:57:34;;;;;;;10.10;8.50;;;2.70;99.90;;;;;;2075931;28;20457;-72
2023/02/14 04:58:35;;;;;;;8.57;7.75;;;2.70;99.90;;;;;;2075097;28;20048;-72
2023/02/14 04:59:35;;;;;;;8.35;7.40;;;2.70;99.90;;;;;;2072419;28;20578;-72
2023/02/14 05:00:36;;;;;;;8.50;7.60;;;2.70;99.90;;;;;;2074200;28;20105;-72
2023/02/14 05:01:36;;;;;;;8.40;7.60;;;2.70;99.90;;;;;;2074725;28;20025;-72
2023/02/14 05:02:37;;;;;;;9.23;8.30;;;2.70;99.90;;;;;;2076532;28;20092;-72
2023/02/14 05:03:37;;;;;;;9.25;8.27;;;2.70;99.90;;;;;;2077768;28;20046;-72
2023/02/14 05:04:38;;;;;;;9.23;8.32;;;2.70;99.90;;;;;;2074317;28;20136;-72
2023/02/14 05:05:38;;;;;;;9.88;8.13;;;2.70;99.90;;;;;;2075493;28;20080;-72
2023/02/14 05:06:39;;;;;;;8.50;7.70;;;2.70;99.90;;;;;;2073390;28;20083;-72
2023/02/14 05:07:41;;;;;;;8.70;7.80;;;2.60;99.90;;;;;;2074464;28;20037;-72
2023/02/14 05:08:41;;;;;;;8.63;7.72;;;2.60;99.90;;;;;;2075209;28;20381;-72
2023/02/14 05:09:42;;;;;;;9.48;8.00;;;2.60;99.90;;;;;;2074075;28;20056;-72
2023/02/14 05:10:43;;;;;;;12.02;9.15;;;2.60;99.90;;;;;;2077128;28;20032;-72
2023/02/14 05:11:43;;;;;;;10.00;8.80;;;2.60;99.90;;;;;;2074922;28;20065;-72
2023/02/14 05:12:44;;;;;;;9.50;8.50;;;2.60;99.90;;;;;;2077184;28;20100;-72
2023/02/14 05:13:44;;;;;;;10.05;8.60;;;2.60;99.90;;;;;;2073528;28;20026;-72
2023/02/14 05:14:45;;;;;;;8.93;7.80;;;2.60;99.90;;;;;;2076691;28;20041;-72
2023/02/14 05:15:46;;;;;;;7.95;7.10;;;2.60;99.90;;;;;;2074249;28;20037;-72
2023/02/14 05:16:46;;;;;;;9.40;7.97;;;2.60;99.90;;;;;;2076235;28;20065;-72
2023/02/14 05:17:47;;;;;;;10.85;8.00;;;2.50;99.90;;;;;;2077006;28;20676;-72
2023/02/14 05:18:47;;;;;;;8.15;7.30;;;2.50;99.90;;;;;;2074791;28;21684;-72
2023/02/14 05:19:48;;;;;;;7.10;6.50;;;2.60;99.90;;;;;;2076289;28;20402;-72
2023/02/14 05:20:53;;;;;;;8.73;7.82;;;2.50;99.90;;;;;;2074062;28;20042;-72
2023/02/14 05:21:53;;;;;;;10.98;8.85;;;2.50;99.90;;;;;;2075312;28;20064;-72
2023/02/14 05:22:54;;;;;;;10.98;8.80;;;2.50;99.90;;;;;;2076259;28;20044;-72
2023/02/14 05:23:54;;;;;;;11.52;9.57;;;2.50;99.90;;;;;;2074150;28;20037;-72
2023/02/14 05:24:55;;;;;;;11.50;8.30;;;2.50;99.90;;;;;;2077237;28;20041;-72
2023/02/14 05:25:55;;;;;;;11.55;7.65;;;2.50;99.90;;;;;;2074860;28;20030;-72
2023/02/14 05:26:56;;;;;;;9.25;8.32;;;2.50;99.90;;;;;;2074593;28;20105;-72
2023/02/14 05:27:57;;;;;;;10.80;9.55;;;2.50;99.90;;;;;;2075810;28;20400;-72
2023/02/14 05:28:57;;;;;;;9.63;8.18;;;2.50;99.90;;;;;;2073366;28;20030;-72
2023/02/14 05:29:58;;;;;;;9.05;8.15;;;2.50;99.90;;;;;;2074507;28;20124;-72
2023/02/14 05:30:58;;;;;;;9.32;8.30;;;2.50;99.90;;;;;;2075601;28;20753;-72
2023/02/14 05:31:59;;;;;;;9.35;7.65;;;2.50;99.90;;;;;;2072847;28;20866;-72
2023/02/14 05:33:00;;;;;;;7.72;6.82;;;2.50;99.90;;;;;;2075383;28;20125;-72
2023/02/14 05:34:00;;;;;;;8.75;7.55;;;2.50;99.90;;;;;;2075289;28;20025;-72
2023/02/14 05:35:01;;;;;;;8.10;7.25;;;2.50;99.90;;;;;;2073880;28;20022;-72
2023/02/14 05:36:02;;;;;;;8.25;7.28;;;2.50;99.90;;;;;;2076142;28;20022;-72
2023/02/14 05:37:02;;;;;;;9.65;7.72;;;2.50;99.90;;;;;;2076345;28;20397;-72
2023/02/14 05:38:03;;;;;;;7.90;6.82;;;2.50;99.90;;;;;;2077127;28;20030;-72
2023/02/14 05:39:04;;;;;;;8.88;8.07;;;2.50;99.90;;;;;;2075840;28;20087;-72
2023/02/14 05:40:07;;;;;;;8.95;7.57;;;2.50;99.90;;;;;;2074293;28;20072;-72
2023/02/14 05:41:07;;;;;;;8.43;7.53;;;2.50;99.90;;;;;;2075666;28;20528;-72
2023/02/14 05:42:08;;;;;;;7.55;6.85;;;2.50;99.90;;;;;;2074011;28;20436;-72
2023/02/14 05:43:08;;;;;;;9.23;7.47;;;2.50;99.90;;;;;;2076325;28;20083;-72
2023/02/14 05:44:09;;;;;;;10.32;8.40;;;2.50;99.90;;;;;;2075190;28;20029;-72
2023/02/14 05:45:10;;;;;;;9.05;8.10;;;2.40;99.90;;;;;;2073829;28;20079;-72
2023/02/14 05:46:11;;;;;;;9.57;8.48;;;2.50;99.90;;;;;;2075315;28;20029;-72
2023/02/14 05:47:11;;;;;;;8.57;7.40;;;2.50;99.90;;;;;;2073419;28;20065;-72
2023/02/14 05:48:12;;;;;;;9.95;8.95;;;2.40;99.90;;;;;;2075047;28;20037;-72
2023/02/14 05:49:12;;;;;;;11.15;8.30;;;2.40;99.90;;;;;;2074794;28;20971;-72
2023/02/14 05:50:13;;;;;;;8.60;7.60;;;2.40;99.90;;;;;;2075869;28;20053;-72
2023/02/14 05:51:14;;;;;;;8.13;7.32;;;2.40;99.90;;;;;;2074092;28;20799;-72
2023/02/14 05:52:14;;;;;;;9.07;7.72;;;2.40;99.90;;;;;;2074339;28;20022;-72
2023/02/14 05:53:15;;;;;;;7.63;6.93;;;2.40;99.90;;;;;;2073807;28;20036;-72
2023/02/14 05:54:15;;;;;;;8.38;7.40;;;2.40;99.90;;;;;;2073883;28;20022;-72
2023/02/14 05:55:16;;;;;;;8.80;7.90;;;2.40;99.90;;;;;;2075071;28;20915;-72